sensor_id;sensor_type;location;lat;lon;timestamp;P1;durP1;ratioP1;P2;durP2;ratioP2
69594;SDS011;56800;52.142;5.364;2024-02-16T00:02:00;6.55;;;2.75;;
69594;SDS011;56800;52.142;5.364;2024-02-16T00:04:27;7.88;;;2.88;;
69594;SDS011;56800;52.142;5.364;2024-02-16T00:06:54;8.82;;;3.33;;
69594;SDS011;56800;52.142;5.364;2024-02-16T00:09:21;9.33;;;2.47;;
69594;SDS011;56800;52.142;5.364;2024-02-16T00:11:48;6.40;;;2.75;;
69594;SDS011;56800;52.142;5.364;2024-02-16T00:14:17;8.02;;;2.85;;
69594;SDS011;56800;52.142;5.364;2024-02-16T00:16:44;12.13;;;3.00;;
69594;SDS011;56800;52.142;5.364;2024-02-16T00:19:10;6.93;;;3.05;;
69594;SDS011;56800;52.142;5.364;2024-02-16T00:21:37;7.47;;;2.97;;
69594;SDS011;56800;52.142;5.364;2024-02-16T00:24:08;7.82;;;2.90;;
69594;SDS011;56800;52.142;5.364;2024-02-16T00:26:36;6.15;;;3.10;;
69594;SDS011;56800;52.142;5.364;2024-02-16T00:29:03;7.03;;;2.50;;
69594;SDS011;56800;52.142;5.364;2024-02-16T00:31:30;8.38;;;3.20;;
69594;SDS011;56800;52.142;5.364;2024-02-16T00:33:57;7.93;;;3.00;;
69594;SDS011;56800;52.142;5.364;2024-02-16T00:36:26;8.48;;;3.05;;
69594;SDS011;56800;52.142;5.364;2024-02-16T00:38:53;10.10;;;3.63;;
69594;SDS011;56800;52.142;5.364;2024-02-16T00:41:21;7.75;;;3.10;;
69594;SDS011;56800;52.142;5.364;2024-02-16T00:43:49;10.43;;;3.20;;
69594;SDS011;56800;52.142;5.364;2024-02-16T00:46:17;8.43;;;3.33;;
69594;SDS011;56800;52.142;5.364;2024-02-16T00:48:44;12.38;;;3.20;;
69594;SDS011;56800;52.142;5.364;2024-02-16T00:51:13;7.88;;;3.33;;
69594;SDS011;56800;52.142;5.364;2024-02-16T00:53:40;8.50;;;2.70;;
69594;SDS011;56800;52.142;5.364;2024-02-16T00:56:06;7.95;;;3.00;;
69594;SDS011;56800;52.142;5.364;2024-02-16T00:58:33;9.17;;;3.50;;
69594;SDS011;56800;52.142;5.364;2024-02-16T01:01:00;12.00;;;3.67;;
69594;SDS011;56800;52.142;5.364;2024-02-16T01:03:27;7.22;;;2.80;;
69594;SDS011;56800;52.142;5.364;2024-02-16T01:05:53;6.60;;;2.95;;
69594;SDS011;56800;52.142;5.364;2024-02-16T01:08:20;7.45;;;2.83;;
69594;SDS011;56800;52.142;5.364;2024-02-16T01:10:49;9.20;;;3.10;;
69594;SDS011;56800;52.142;5.364;2024-02-16T01:13:16;9.27;;;3.00;;
69594;SDS011;56800;52.142;5.364;2024-02-16T01:15:42;7.60;;;3.28;;
69594;SDS011;56800;52.142;5.364;2024-02-16T01:18:10;8.77;;;3.50;;
69594;SDS011;56800;52.142;5.364;2024-02-16T01:20:37;12.52;;;3.55;;
69594;SDS011;56800;52.142;5.364;2024-02-16T01:23:04;7.17;;;2.90;;
69594;SDS011;56800;52.142;5.364;2024-02-16T01:25:31;8.82;;;3.10;;
69594;SDS011;56800;52.142;5.364;2024-02-16T01:27:58;5.85;;;2.78;;
69594;SDS011;56800;52.142;5.364;2024-02-16T01:30:25;9.75;;;2.80;;
69594;SDS011;56800;52.142;5.364;2024-02-16T01:32:52;6.05;;;3.53;;
69594;SDS011;56800;52.142;5.364;2024-02-16T01:35:19;10.63;;;2.90;;
69594;SDS011;56800;52.142;5.364;2024-02-16T01:37:45;6.50;;;2.50;;
69594;SDS011;56800;52.142;5.364;2024-02-16T01:40:14;6.32;;;3.28;;
69594;SDS011;56800;52.142;5.364;2024-02-16T01:42:43;6.07;;;3.10;;
69594;SDS011;56800;52.142;5.364;2024-02-16T01:45:10;7.35;;;2.95;;
69594;SDS011;56800;52.142;5.364;2024-02-16T01:47:38;10.20;;;3.20;;
69594;SDS011;56800;52.142;5.364;2024-02-16T01:50:07;9.27;;;3.58;;
69594;SDS011;56800;52.142;5.364;2024-02-16T01:52:35;8.82;;;3.03;;
69594;SDS011;56800;52.142;5.364;2024-02-16T01:55:03;7.32;;;3.40;;
69594;SDS011;56800;52.142;5.364;2024-02-16T01:57:31;9.27;;;2.85;;
69594;SDS011;56800;52.142;5.364;2024-02-16T01:59:58;11.97;;;3.10;;
69594;SDS011;56800;52.142;5.364;2024-02-16T02:02:26;7.40;;;3.08;;
69594;SDS011;56800;52.142;5.364;2024-02-16T02:04:53;8.27;;;2.90;;
69594;SDS011;56800;52.142;5.364;2024-02-16T02:07:24;6.25;;;2.72;;
69594;SDS011;56800;52.142;5.364;2024-02-16T02:09:53;5.75;;;2.90;;
69594;SDS011;56800;52.142;5.364;2024-02-16T02:12:20;7.13;;;2.97;;
69594;SDS011;56800;52.142;5.364;2024-02-16T02:14:49;9.38;;;3.22;;
69594;SDS011;56800;52.142;5.364;2024-02-16T02:17:16;8.38;;;3.20;;
69594;SDS011;56800;52.142;5.364;2024-02-16T02:19:48;8.57;;;3.13;;
69594;SDS011;56800;52.142;5.364;2024-02-16T02:22:18;9.20;;;3.25;;
69594;SDS011;56800;52.142;5.364;2024-02-16T02:24:46;7.33;;;3.40;;
69594;SDS011;56800;52.142;5.364;2024-02-16T02:27:15;7.80;;;3.17;;
69594;SDS011;56800;52.142;5.364;2024-02-16T02:29:43;11.75;;;3.08;;
69594;SDS011;56800;52.142;5.364;2024-02-16T02:32:10;10.05;;;3.30;;
69594;SDS011;56800;52.142;5.364;2024-02-16T02:34:38;7.53;;;2.90;;
69594;SDS011;56800;52.142;5.364;2024-02-16T02:37:06;7.63;;;3.33;;
69594;SDS011;56800;52.142;5.364;2024-02-16T02:39:33;6.82;;;2.92;;
69594;SDS011;56800;52.142;5.364;2024-02-16T02:42:00;6.03;;;3.25;;
69594;SDS011;56800;52.142;5.364;2024-02-16T02:44:27;7.43;;;3.05;;
69594;SDS011;56800;52.142;5.364;2024-02-16T02:46:53;7.40;;;3.30;;
69594;SDS011;56800;52.142;5.364;2024-02-16T02:49:20;10.17;;;3.60;;
69594;SDS011;56800;52.142;5.364;2024-02-16T02:51:47;8.65;;;2.97;;
69594;SDS011;56800;52.142;5.364;2024-02-16T02:54:14;7.60;;;2.95;;
69594;SDS011;56800;52.142;5.364;2024-02-16T02:56:41;6.47;;;2.90;;
69594;SDS011;56800;52.142;5.364;2024-02-16T02:59:07;6.10;;;3.03;;
69594;SDS011;56800;52.142;5.364;2024-02-16T03:01:35;5.50;;;2.70;;
69594;SDS011;56800;52.142;5.364;2024-02-16T03:04:03;7.45;;;3.00;;
69594;SDS011;56800;52.142;5.364;2024-02-16T03:06:30;8.13;;;3.60;;
69594;SDS011;56800;52.142;5.364;2024-02-16T03:08:57;6.55;;;3.28;;
69594;SDS011;56800;52.142;5.364;2024-02-16T03:11:24;6.80;;;3.20;;
69594;SDS011;56800;52.142;5.364;2024-02-16T03:13:52;8.57;;;3.27;;
69594;SDS011;56800;52.142;5.364;2024-02-16T03:16:19;5.30;;;3.08;;
69594;SDS011;56800;52.142;5.364;2024-02-16T03:18:45;6.95;;;3.28;;
69594;SDS011;56800;52.142;5.364;2024-02-16T03:21:13;6.82;;;3.05;;
69594;SDS011;56800;52.142;5.364;2024-02-16T03:23:43;8.13;;;3.08;;
69594;SDS011;56800;52.142;5.364;2024-02-16T03:26:19;7.27;;;3.20;;
69594;SDS011;56800;52.142;5.364;2024-02-16T03:28:47;6.93;;;3.08;;
69594;SDS011;56800;52.142;5.364;2024-02-16T03:31:21;7.00;;;3.35;;
69594;SDS011;56800;52.142;5.364;2024-02-16T03:33:49;8.02;;;3.45;;
69594;SDS011;56800;52.142;5.364;2024-02-16T03:36:20;7.90;;;2.90;;
69594;SDS011;56800;52.142;5.364;2024-02-16T03:38:47;7.17;;;3.40;;
69594;SDS011;56800;52.142;5.364;2024-02-16T03:41:18;5.22;;;2.97;;
69594;SDS011;56800;52.142;5.364;2024-02-16T03:43:46;4.75;;;2.97;;
69594;SDS011;56800;52.142;5.364;2024-02-16T03:46:13;6.35;;;3.15;;
69594;SDS011;56800;52.142;5.364;2024-02-16T03:48:41;5.05;;;2.67;;
69594;SDS011;56800;52.142;5.364;2024-02-16T03:51:08;5.10;;;2.70;;
69594;SDS011;56800;52.142;5.364;2024-02-16T03:53:35;7.70;;;3.38;;
69594;SDS011;56800;52.142;5.364;2024-02-16T03:56:02;8.30;;;2.90;;
69594;SDS011;56800;52.142;5.364;2024-02-16T03:58:30;6.68;;;3.03;;
69594;SDS011;56800;52.142;5.364;2024-02-16T04:00:57;7.78;;;3.33;;
69594;SDS011;56800;52.142;5.364;2024-02-16T04:03:24;7.57;;;3.40;;
69594;SDS011;56800;52.142;5.364;2024-02-16T04:05:51;6.38;;;2.97;;
69594;SDS011;56800;52.142;5.364;2024-02-16T04:08:19;6.80;;;3.22;;
69594;SDS011;56800;52.142;5.364;2024-02-16T04:10:46;6.28;;;3.15;;
69594;SDS011;56800;52.142;5.364;2024-02-16T04:13:13;6.88;;;2.92;;
69594;SDS011;56800;52.142;5.364;2024-02-16T04:15:39;6.27;;;3.10;;
69594;SDS011;56800;52.142;5.364;2024-02-16T04:18:06;7.47;;;2.97;;
69594;SDS011;56800;52.142;5.364;2024-02-16T04:20:33;8.15;;;3.25;;
69594;SDS011;56800;52.142;5.364;2024-02-16T04:23:00;6.80;;;2.85;;
69594;SDS011;56800;52.142;5.364;2024-02-16T04:25:27;7.13;;;3.33;;
69594;SDS011;56800;52.142;5.364;2024-02-16T04:27:54;7.43;;;3.00;;
69594;SDS011;56800;52.142;5.364;2024-02-16T04:30:20;7.28;;;2.90;;
69594;SDS011;56800;52.142;5.364;2024-02-16T04:32:47;7.40;;;3.75;;
69594;SDS011;56800;52.142;5.364;2024-02-16T04:35:15;7.13;;;3.00;;
69594;SDS011;56800;52.142;5.364;2024-02-16T04:37:43;7.43;;;3.25;;
69594;SDS011;56800;52.142;5.364;2024-02-16T04:40:10;6.67;;;2.87;;
69594;SDS011;56800;52.142;5.364;2024-02-16T04:42:38;7.47;;;3.15;;
69594;SDS011;56800;52.142;5.364;2024-02-16T04:45:07;8.60;;;3.70;;
69594;SDS011;56800;52.142;5.364;2024-02-16T04:47:37;6.45;;;3.28;;
69594;SDS011;56800;52.142;5.364;2024-02-16T04:50:04;6.70;;;2.95;;
69594;SDS011;56800;52.142;5.364;2024-02-16T04:52:31;8.50;;;3.27;;
69594;SDS011;56800;52.142;5.364;2024-02-16T04:54:58;12.05;;;3.08;;
69594;SDS011;56800;52.142;5.364;2024-02-16T04:57:24;7.05;;;3.70;;
69594;SDS011;56800;52.142;5.364;2024-02-16T04:59:51;5.70;;;3.05;;
69594;SDS011;56800;52.142;5.364;2024-02-16T05:02:18;5.22;;;2.53;;
69594;SDS011;56800;52.142;5.364;2024-02-16T05:04:45;9.23;;;3.07;;
69594;SDS011;56800;52.142;5.364;2024-02-16T05:07:11;5.82;;;3.00;;
69594;SDS011;56800;52.142;5.364;2024-02-16T05:09:38;12.75;;;3.17;;
69594;SDS011;56800;52.142;5.364;2024-02-16T05:12:06;8.70;;;3.13;;
69594;SDS011;56800;52.142;5.364;2024-02-16T05:14:35;8.15;;;3.22;;
69594;SDS011;56800;52.142;5.364;2024-02-16T05:17:02;8.00;;;3.33;;
69594;SDS011;56800;52.142;5.364;2024-02-16T05:19:32;6.53;;;3.47;;
69594;SDS011;56800;52.142;5.364;2024-02-16T05:22:00;10.30;;;3.28;;
69594;SDS011;56800;52.142;5.364;2024-02-16T05:24:27;6.28;;;3.40;;
69594;SDS011;56800;52.142;5.364;2024-02-16T05:26:54;8.82;;;3.10;;
69594;SDS011;56800;52.142;5.364;2024-02-16T05:29:22;9.97;;;3.23;;
69594;SDS011;56800;52.142;5.364;2024-02-16T05:31:50;9.50;;;3.20;;
69594;SDS011;56800;52.142;5.364;2024-02-16T05:34:17;8.45;;;3.60;;
69594;SDS011;56800;52.142;5.364;2024-02-16T05:36:44;6.55;;;3.13;;
69594;SDS011;56800;52.142;5.364;2024-02-16T05:39:11;6.80;;;3.25;;
69594;SDS011;56800;52.142;5.364;2024-02-16T05:41:53;6.13;;;2.93;;
69594;SDS011;56800;52.142;5.364;2024-02-16T05:44:20;6.00;;;3.00;;
69594;SDS011;56800;52.142;5.364;2024-02-16T05:46:47;5.75;;;3.03;;
69594;SDS011;56800;52.142;5.364;2024-02-16T05:49:14;6.82;;;3.08;;
69594;SDS011;56800;52.142;5.364;2024-02-16T05:51:42;5.57;;;2.78;;
69594;SDS011;56800;52.142;5.364;2024-02-16T05:54:27;8.17;;;3.27;;
69594;SDS011;56800;52.142;5.364;2024-02-16T05:56:55;12.35;;;3.38;;
69594;SDS011;56800;52.142;5.364;2024-02-16T05:59:21;6.30;;;3.13;;
69594;SDS011;56800;52.142;5.364;2024-02-16T06:01:48;8.13;;;2.97;;
69594;SDS011;56800;52.142;5.364;2024-02-16T06:04:15;7.57;;;3.22;;
69594;SDS011;56800;52.142;5.364;2024-02-16T06:06:42;7.07;;;3.03;;
69594;SDS011;56800;52.142;5.364;2024-02-16T06:09:09;7.10;;;2.97;;
69594;SDS011;56800;52.142;5.364;2024-02-16T06:11:37;7.40;;;3.58;;
69594;SDS011;56800;52.142;5.364;2024-02-16T06:14:05;7.53;;;3.25;;
69594;SDS011;56800;52.142;5.364;2024-02-16T06:16:31;7.07;;;3.45;;
69594;SDS011;56800;52.142;5.364;2024-02-16T06:18:58;7.77;;;2.93;;
69594;SDS011;56800;52.142;5.364;2024-02-16T06:21:25;5.22;;;2.85;;
69594;SDS011;56800;52.142;5.364;2024-02-16T06:23:52;7.82;;;3.58;;
69594;SDS011;56800;52.142;5.364;2024-02-16T06:26:18;7.50;;;3.13;;
69594;SDS011;56800;52.142;5.364;2024-02-16T06:28:46;7.43;;;3.60;;
69594;SDS011;56800;52.142;5.364;2024-02-16T06:31:13;28.37;;;3.10;;
69594;SDS011;56800;52.142;5.364;2024-02-16T06:33:40;9.45;;;2.65;;
69594;SDS011;56800;52.142;5.364;2024-02-16T06:36:07;7.32;;;3.08;;
69594;SDS011;56800;52.142;5.364;2024-02-16T06:38:36;7.63;;;3.03;;
69594;SDS011;56800;52.142;5.364;2024-02-16T06:41:03;8.13;;;3.40;;
69594;SDS011;56800;52.142;5.364;2024-02-16T06:43:30;9.93;;;2.97;;
69594;SDS011;56800;52.142;5.364;2024-02-16T06:45:57;6.70;;;3.10;;
69594;SDS011;56800;52.142;5.364;2024-02-16T06:48:24;7.40;;;3.05;;
69594;SDS011;56800;52.142;5.364;2024-02-16T06:50:51;9.75;;;3.42;;
69594;SDS011;56800;52.142;5.364;2024-02-16T06:53:18;5.22;;;3.05;;
69594;SDS011;56800;52.142;5.364;2024-02-16T06:55:44;9.57;;;3.43;;
69594;SDS011;56800;52.142;5.364;2024-02-16T06:58:11;6.95;;;2.90;;
69594;SDS011;56800;52.142;5.364;2024-02-16T07:00:38;8.20;;;3.28;;
69594;SDS011;56800;52.142;5.364;2024-02-16T07:03:08;5.43;;;2.97;;
69594;SDS011;56800;52.142;5.364;2024-02-16T07:05:35;5.32;;;3.13;;
69594;SDS011;56800;52.142;5.364;2024-02-16T07:08:03;8.77;;;3.53;;
69594;SDS011;56800;52.142;5.364;2024-02-16T07:10:33;11.68;;;3.05;;
69594;SDS011;56800;52.142;5.364;2024-02-16T07:13:00;6.25;;;3.10;;
69594;SDS011;56800;52.142;5.364;2024-02-16T07:15:27;8.38;;;3.30;;
69594;SDS011;56800;52.142;5.364;2024-02-16T07:17:54;8.40;;;3.35;;
69594;SDS011;56800;52.142;5.364;2024-02-16T07:20:20;6.90;;;3.17;;
69594;SDS011;56800;52.142;5.364;2024-02-16T07:22:47;7.18;;;3.17;;
69594;SDS011;56800;52.142;5.364;2024-02-16T07:25:16;11.70;;;3.35;;
69594;SDS011;56800;52.142;5.364;2024-02-16T07:27:43;10.80;;;3.13;;
69594;SDS011;56800;52.142;5.364;2024-02-16T07:30:10;9.02;;;3.22;;
69594;SDS011;56800;52.142;5.364;2024-02-16T07:32:41;7.27;;;3.40;;
69594;SDS011;56800;52.142;5.364;2024-02-16T07:35:10;9.43;;;3.58;;
69594;SDS011;56800;52.142;5.364;2024-02-16T07:37:36;7.60;;;3.10;;
69594;SDS011;56800;52.142;5.364;2024-02-16T07:40:03;5.78;;;3.67;;
69594;SDS011;56800;52.142;5.364;2024-02-16T07:42:32;5.95;;;3.47;;
69594;SDS011;56800;52.142;5.364;2024-02-16T07:44:59;8.53;;;3.50;;
69594;SDS011;56800;52.142;5.364;2024-02-16T07:47:26;5.38;;;3.10;;
69594;SDS011;56800;52.142;5.364;2024-02-16T07:49:53;7.22;;;3.60;;
69594;SDS011;56800;52.142;5.364;2024-02-16T07:52:20;8.63;;;3.50;;
69594;SDS011;56800;52.142;5.364;2024-02-16T07:54:47;8.02;;;3.63;;
69594;SDS011;56800;52.142;5.364;2024-02-16T07:57:14;8.17;;;3.50;;
69594;SDS011;56800;52.142;5.364;2024-02-16T07:59:41;8.15;;;3.40;;
69594;SDS011;56800;52.142;5.364;2024-02-16T08:02:07;8.18;;;3.95;;
69594;SDS011;56800;52.142;5.364;2024-02-16T08:04:35;8.20;;;3.83;;
69594;SDS011;56800;52.142;5.364;2024-02-16T08:07:02;8.48;;;3.83;;
69594;SDS011;56800;52.142;5.364;2024-02-16T08:09:29;7.40;;;3.57;;
69594;SDS011;56800;52.142;5.364;2024-02-16T08:11:56;8.80;;;3.80;;
69594;SDS011;56800;52.142;5.364;2024-02-16T08:14:23;7.72;;;3.90;;
69594;SDS011;56800;52.142;5.364;2024-02-16T08:16:49;8.73;;;3.42;;
69594;SDS011;56800;52.142;5.364;2024-02-16T08:19:31;7.45;;;3.63;;
69594;SDS011;56800;52.142;5.364;2024-02-16T08:22:02;29.43;;;4.07;;
69594;SDS011;56800;52.142;5.364;2024-02-16T08:24:37;20.67;;;3.60;;
69594;SDS011;56800;52.142;5.364;2024-02-16T08:27:04;8.10;;;3.92;;
69594;SDS011;56800;52.142;5.364;2024-02-16T08:29:30;14.35;;;3.30;;
69594;SDS011;56800;52.142;5.364;2024-02-16T08:31:57;9.75;;;3.88;;
69594;SDS011;56800;52.142;5.364;2024-02-16T08:34:24;10.13;;;3.50;;
69594;SDS011;56800;52.142;5.364;2024-02-16T08:36:52;5.70;;;3.55;;
69594;SDS011;56800;52.142;5.364;2024-02-16T08:39:19;11.57;;;4.38;;
69594;SDS011;56800;52.142;5.364;2024-02-16T08:41:49;9.18;;;4.30;;
69594;SDS011;56800;52.142;5.364;2024-02-16T08:44:15;8.88;;;3.67;;
69594;SDS011;56800;52.142;5.364;2024-02-16T08:46:42;8.50;;;3.80;;
69594;SDS011;56800;52.142;5.364;2024-02-16T08:49:09;10.65;;;4.20;;
69594;SDS011;56800;52.142;5.364;2024-02-16T08:51:36;8.65;;;4.35;;
69594;SDS011;56800;52.142;5.364;2024-02-16T08:54:03;9.80;;;4.05;;
69594;SDS011;56800;52.142;5.364;2024-02-16T08:56:35;8.68;;;4.10;;
69594;SDS011;56800;52.142;5.364;2024-02-16T08:59:02;10.03;;;4.10;;
69594;SDS011;56800;52.142;5.364;2024-02-16T09:01:32;8.40;;;3.70;;
69594;SDS011;56800;52.142;5.364;2024-02-16T09:04:00;10.90;;;5.03;;
69594;SDS011;56800;52.142;5.364;2024-02-16T09:06:28;13.68;;;5.07;;
69594;SDS011;56800;52.142;5.364;2024-02-16T09:08:56;10.30;;;4.20;;
69594;SDS011;56800;52.142;5.364;2024-02-16T09:11:23;10.27;;;4.80;;
69594;SDS011;56800;52.142;5.364;2024-02-16T09:13:50;9.82;;;4.13;;
69594;SDS011;56800;52.142;5.364;2024-02-16T09:16:17;9.60;;;4.93;;
69594;SDS011;56800;52.142;5.364;2024-02-16T09:18:47;9.15;;;4.80;;
69594;SDS011;56800;52.142;5.364;2024-02-16T09:21:17;11.05;;;4.97;;
69594;SDS011;56800;52.142;5.364;2024-02-16T09:23:44;10.83;;;5.40;;
69594;SDS011;56800;52.142;5.364;2024-02-16T09:26:11;14.95;;;4.68;;
69594;SDS011;56800;52.142;5.364;2024-02-16T09:28:39;12.93;;;4.53;;
69594;SDS011;56800;52.142;5.364;2024-02-16T09:31:09;13.93;;;4.55;;
69594;SDS011;56800;52.142;5.364;2024-02-16T09:33:42;12.15;;;4.97;;
69594;SDS011;56800;52.142;5.364;2024-02-16T09:36:10;9.73;;;5.30;;
69594;SDS011;56800;52.142;5.364;2024-02-16T09:38:37;10.57;;;5.10;;
69594;SDS011;56800;52.142;5.364;2024-02-16T09:41:04;10.23;;;4.72;;
69594;SDS011;56800;52.142;5.364;2024-02-16T09:43:31;10.68;;;5.38;;
69594;SDS011;56800;52.142;5.364;2024-02-16T09:45:58;9.45;;;5.53;;
69594;SDS011;56800;52.142;5.364;2024-02-16T09:48:29;11.43;;;5.20;;
69594;SDS011;56800;52.142;5.364;2024-02-16T09:50:57;12.63;;;5.55;;
69594;SDS011;56800;52.142;5.364;2024-02-16T09:53:28;11.95;;;5.43;;
69594;SDS011;56800;52.142;5.364;2024-02-16T09:55:55;12.57;;;5.55;;
69594;SDS011;56800;52.142;5.364;2024-02-16T09:58:22;8.75;;;5.07;;
69594;SDS011;56800;52.142;5.364;2024-02-16T10:00:52;8.37;;;4.80;;
69594;SDS011;56800;52.142;5.364;2024-02-16T10:06:04;12.10;;;5.40;;
69594;SDS011;56800;52.142;5.364;2024-02-16T10:08:33;10.75;;;5.63;;
69594;SDS011;56800;52.142;5.364;2024-02-16T10:11:04;12.48;;;4.85;;
69594;SDS011;56800;52.142;5.364;2024-02-16T10:13:31;15.40;;;5.53;;
69594;SDS011;56800;52.142;5.364;2024-02-16T10:16:05;11.70;;;5.10;;
69594;SDS011;56800;52.142;5.364;2024-02-16T10:18:38;12.80;;;5.65;;
69594;SDS011;56800;52.142;5.364;2024-02-16T10:21:05;13.13;;;5.55;;
69594;SDS011;56800;52.142;5.364;2024-02-16T10:23:34;11.88;;;5.88;;
69594;SDS011;56800;52.142;5.364;2024-02-16T10:26:09;13.80;;;5.83;;
69594;SDS011;56800;52.142;5.364;2024-02-16T10:28:36;11.60;;;6.00;;
69594;SDS011;56800;52.142;5.364;2024-02-16T10:31:04;12.57;;;6.30;;
69594;SDS011;56800;52.142;5.364;2024-02-16T10:33:38;14.68;;;5.60;;
69594;SDS011;56800;52.142;5.364;2024-02-16T10:36:07;14.13;;;6.30;;
69594;SDS011;56800;52.142;5.364;2024-02-16T10:38:34;14.90;;;6.63;;
69594;SDS011;56800;52.142;5.364;2024-02-16T10:41:03;12.70;;;6.90;;
69594;SDS011;56800;52.142;5.364;2024-02-16T10:43:32;16.27;;;6.72;;
69594;SDS011;56800;52.142;5.364;2024-02-16T10:45:59;14.25;;;6.82;;
69594;SDS011;56800;52.142;5.364;2024-02-16T10:48:27;11.52;;;6.70;;
69594;SDS011;56800;52.142;5.364;2024-02-16T10:50:54;15.20;;;7.00;;
69594;SDS011;56800;52.142;5.364;2024-02-16T10:53:27;12.02;;;7.20;;
69594;SDS011;56800;52.142;5.364;2024-02-16T10:55:58;13.70;;;6.63;;
69594;SDS011;56800;52.142;5.364;2024-02-16T10:58:54;14.30;;;7.72;;
69594;SDS011;56800;52.142;5.364;2024-02-16T11:01:21;14.52;;;7.75;;
69594;SDS011;56800;52.142;5.364;2024-02-16T11:03:49;15.20;;;7.90;;
69594;SDS011;56800;52.142;5.364;2024-02-16T11:06:26;14.95;;;8.10;;
69594;SDS011;56800;52.142;5.364;2024-02-16T11:08:53;15.65;;;8.15;;
69594;SDS011;56800;52.142;5.364;2024-02-16T11:11:23;15.07;;;7.82;;
69594;SDS011;56800;52.142;5.364;2024-02-16T11:13:53;20.40;;;8.88;;
69594;SDS011;56800;52.142;5.364;2024-02-16T11:16:22;13.63;;;8.53;;
69594;SDS011;56800;52.142;5.364;2024-02-16T11:18:51;15.07;;;7.90;;
69594;SDS011;56800;52.142;5.364;2024-02-16T11:21:19;14.75;;;8.73;;
69594;SDS011;56800;52.142;5.364;2024-02-16T11:23:45;15.18;;;8.30;;
69594;SDS011;56800;52.142;5.364;2024-02-16T11:26:12;17.75;;;9.10;;
69594;SDS011;56800;52.142;5.364;2024-02-16T11:28:40;13.27;;;8.03;;
69594;SDS011;56800;52.142;5.364;2024-02-16T11:31:08;16.85;;;8.40;;
69594;SDS011;56800;52.142;5.364;2024-02-16T11:33:35;14.57;;;8.88;;
69594;SDS011;56800;52.142;5.364;2024-02-16T11:36:04;14.13;;;8.07;;
69594;SDS011;56800;52.142;5.364;2024-02-16T11:38:34;15.00;;;8.43;;
69594;SDS011;56800;52.142;5.364;2024-02-16T11:41:02;13.37;;;8.53;;
69594;SDS011;56800;52.142;5.364;2024-02-16T11:43:31;19.17;;;9.52;;
69594;SDS011;56800;52.142;5.364;2024-02-16T11:46:11;14.15;;;9.02;;
69594;SDS011;56800;52.142;5.364;2024-02-16T11:48:39;18.10;;;9.05;;
69594;SDS011;56800;52.142;5.364;2024-02-16T11:51:27;17.35;;;8.35;;
69594;SDS011;56800;52.142;5.364;2024-02-16T11:53:55;17.60;;;8.80;;
69594;SDS011;56800;52.142;5.364;2024-02-16T11:56:24;15.45;;;8.90;;
69594;SDS011;56800;52.142;5.364;2024-02-16T11:58:51;18.02;;;8.77;;
69594;SDS011;56800;52.142;5.364;2024-02-16T12:01:19;16.30;;;8.95;;
69594;SDS011;56800;52.142;5.364;2024-02-16T12:03:47;17.08;;;8.63;;
69594;SDS011;56800;52.142;5.364;2024-02-16T12:06:20;17.33;;;8.87;;
69594;SDS011;56800;52.142;5.364;2024-02-16T12:08:49;16.85;;;8.90;;
69594;SDS011;56800;52.142;5.364;2024-02-16T12:11:17;16.13;;;8.45;;
69594;SDS011;56800;52.142;5.364;2024-02-16T12:13:44;16.35;;;8.60;;
69594;SDS011;56800;52.142;5.364;2024-02-16T12:16:12;15.88;;;8.43;;
69594;SDS011;56800;52.142;5.364;2024-02-16T12:18:39;18.53;;;8.07;;
69594;SDS011;56800;52.142;5.364;2024-02-16T12:21:06;15.77;;;8.52;;
69594;SDS011;56800;52.142;5.364;2024-02-16T12:23:33;15.00;;;7.97;;
69594;SDS011;56800;52.142;5.364;2024-02-16T12:26:00;15.10;;;7.90;;
69594;SDS011;56800;52.142;5.364;2024-02-16T12:28:28;13.68;;;6.93;;
69594;SDS011;56800;52.142;5.364;2024-02-16T12:30:59;13.20;;;6.17;;
69594;SDS011;56800;52.142;5.364;2024-02-16T12:33:29;11.48;;;5.40;;
69594;SDS011;56800;52.142;5.364;2024-02-16T12:35:57;6.85;;;4.35;;
69594;SDS011;56800;52.142;5.364;2024-02-16T12:38:24;7.63;;;3.70;;
69594;SDS011;56800;52.142;5.364;2024-02-16T12:40:50;6.40;;;3.90;;
69594;SDS011;56800;52.142;5.364;2024-02-16T12:43:17;7.43;;;3.73;;
69594;SDS011;56800;52.142;5.364;2024-02-16T12:45:53;6.13;;;3.45;;
69594;SDS011;56800;52.142;5.364;2024-02-16T12:48:20;5.88;;;3.50;;
69594;SDS011;56800;52.142;5.364;2024-02-16T12:50:49;6.00;;;3.70;;
69594;SDS011;56800;52.142;5.364;2024-02-16T12:53:18;5.30;;;3.80;;
69594;SDS011;56800;52.142;5.364;2024-02-16T12:55:46;7.20;;;4.10;;
69594;SDS011;56800;52.142;5.364;2024-02-16T12:58:13;5.22;;;3.03;;
69594;SDS011;56800;52.142;5.364;2024-02-16T13:00:41;4.80;;;3.13;;
69594;SDS011;56800;52.142;5.364;2024-02-16T13:03:07;5.90;;;3.55;;
69594;SDS011;56800;52.142;5.364;2024-02-16T13:05:34;6.90;;;3.80;;
69594;SDS011;56800;52.142;5.364;2024-02-16T13:08:01;5.50;;;3.80;;
69594;SDS011;56800;52.142;5.364;2024-02-16T13:10:28;4.43;;;3.35;;
69594;SDS011;56800;52.142;5.364;2024-02-16T13:12:59;5.82;;;3.42;;
69594;SDS011;56800;52.142;5.364;2024-02-16T13:15:26;5.38;;;3.22;;
69594;SDS011;56800;52.142;5.364;2024-02-16T13:17:54;4.80;;;3.50;;
69594;SDS011;56800;52.142;5.364;2024-02-16T13:20:22;6.37;;;3.37;;
69594;SDS011;56800;52.142;5.364;2024-02-16T13:22:49;6.15;;;3.38;;
69594;SDS011;56800;52.142;5.364;2024-02-16T13:25:16;6.22;;;3.58;;
69594;SDS011;56800;52.142;5.364;2024-02-16T13:27:44;7.63;;;3.20;;
69594;SDS011;56800;52.142;5.364;2024-02-16T13:30:11;5.75;;;3.75;;
69594;SDS011;56800;52.142;5.364;2024-02-16T13:32:38;6.13;;;3.30;;
69594;SDS011;56800;52.142;5.364;2024-02-16T13:35:06;5.10;;;3.20;;
69594;SDS011;56800;52.142;5.364;2024-02-16T13:37:34;5.28;;;2.83;;
69594;SDS011;56800;52.142;5.364;2024-02-16T13:40:01;6.45;;;2.75;;
69594;SDS011;56800;52.142;5.364;2024-02-16T13:42:33;7.65;;;3.10;;
69594;SDS011;56800;52.142;5.364;2024-02-16T13:45:00;6.37;;;3.57;;
69594;SDS011;56800;52.142;5.364;2024-02-16T13:47:27;6.10;;;3.10;;
69594;SDS011;56800;52.142;5.364;2024-02-16T13:49:54;7.80;;;3.08;;
69594;SDS011;56800;52.142;5.364;2024-02-16T13:52:23;7.47;;;2.80;;
69594;SDS011;56800;52.142;5.364;2024-02-16T13:54:50;7.78;;;3.45;;
69594;SDS011;56800;52.142;5.364;2024-02-16T13:57:18;8.27;;;2.80;;
69594;SDS011;56800;52.142;5.364;2024-02-16T13:59:46;6.28;;;2.60;;
69594;SDS011;56800;52.142;5.364;2024-02-16T14:02:13;7.28;;;3.20;;
69594;SDS011;56800;52.142;5.364;2024-02-16T14:04:40;6.40;;;3.33;;
69594;SDS011;56800;52.142;5.364;2024-02-16T14:07:07;8.75;;;2.85;;
69594;SDS011;56800;52.142;5.364;2024-02-16T14:09:35;8.30;;;3.10;;
69594;SDS011;56800;52.142;5.364;2024-02-16T14:12:02;6.40;;;3.20;;
69594;SDS011;56800;52.142;5.364;2024-02-16T14:14:30;13.35;;;3.58;;
69594;SDS011;56800;52.142;5.364;2024-02-16T14:17:03;10.85;;;3.85;;
69594;SDS011;56800;52.142;5.364;2024-02-16T14:19:31;6.72;;;3.85;;
69594;SDS011;56800;52.142;5.364;2024-02-16T14:22:00;6.53;;;3.77;;
69594;SDS011;56800;52.142;5.364;2024-02-16T14:24:27;6.80;;;3.45;;
69594;SDS011;56800;52.142;5.364;2024-02-16T14:26:54;7.55;;;4.30;;
69594;SDS011;56800;52.142;5.364;2024-02-16T14:29:22;5.82;;;3.78;;
69594;SDS011;56800;52.142;5.364;2024-02-16T14:31:48;5.22;;;3.83;;
69594;SDS011;56800;52.142;5.364;2024-02-16T14:34:16;8.07;;;3.80;;
69594;SDS011;56800;52.142;5.364;2024-02-16T14:36:43;7.47;;;4.15;;
69594;SDS011;56800;52.142;5.364;2024-02-16T14:39:10;8.18;;;4.68;;
69594;SDS011;56800;52.142;5.364;2024-02-16T14:41:38;7.05;;;4.20;;
69594;SDS011;56800;52.142;5.364;2024-02-16T14:44:05;6.13;;;4.43;;
69594;SDS011;56800;52.142;5.364;2024-02-16T14:46:32;7.87;;;4.30;;
69594;SDS011;56800;52.142;5.364;2024-02-16T14:48:59;7.57;;;4.00;;
69594;SDS011;56800;52.142;5.364;2024-02-16T14:51:26;7.82;;;4.10;;